createdAt,value
2023-03-17T00:01:10.440Z,99562.70
2023-03-17T00:03:46.575Z,99565.73
2023-03-17T00:06:28.005Z,99563.52
2023-03-17T00:09:01.646Z,99566.69
2023-03-17T00:11:34.978Z,99565.81
2023-03-17T00:14:08.704Z,99572.87
2023-03-17T00:16:45.553Z,99572.06
2023-03-17T00:19:34.161Z,99573.91
2023-03-17T00:22:15.554Z,99570.00
2023-03-17T00:24:48.262Z,99572.22
2023-03-17T00:27:21.295Z,99572.14
2023-03-17T00:29:54.404Z,99572.06
2023-03-17T00:32:27.787Z,99576.78
2023-03-17T00:35:00.801Z,99574.44
2023-03-17T00:37:34.276Z,99570.37
2023-03-17T00:40:11.049Z,99565.88
2023-03-17T00:42:42.718Z,99564.42
2023-03-17T00:45:16.988Z,99558.98
2023-03-17T00:47:52.332Z,99562.98
2023-03-17T00:50:28.882Z,99563.67
2023-03-17T00:53:02.692Z,99565.20
2023-03-17T00:55:35.861Z,99565.46
2023-03-17T00:58:19.600Z,99563.47
2023-03-17T01:00:55.532Z,99568.63
2023-03-17T01:03:29.839Z,99574.56
2023-03-17T01:06:05.154Z,99575.37
2023-03-17T01:08:39.263Z,99577.59
2023-03-17T01:11:19.438Z,99582.37
2023-03-17T01:13:54.106Z,99580.58
2023-03-17T01:16:27.262Z,99585.41
2023-03-17T01:19:00.328Z,99589.70
2023-03-17T01:21:33.869Z,99590.67
2023-03-17T01:24:08.469Z,99591.27
2023-03-17T01:26:41.810Z,99599.00
2023-03-17T01:29:15.048Z,99604.52
2023-03-17T01:31:47.861Z,99608.84
2023-03-17T01:34:22.338Z,99610.39
2023-03-17T01:36:55.618Z,99618.20
2023-03-17T01:39:28.553Z,99616.58
2023-03-17T01:42:02.925Z,99622.75
2023-03-17T01:44:35.456Z,99626.40
2023-03-17T01:47:09.307Z,99625.56
2023-03-17T01:49:43.309Z,99631.81
2023-03-17T01:52:18.591Z,99636.47
2023-03-17T01:54:59.205Z,99643.30
2023-03-17T01:57:37.455Z,99646.53
2023-03-17T02:00:16.358Z,99645.48
2023-03-17T02:02:54.365Z,99646.60
2023-03-17T02:05:31.315Z,99647.23
2023-03-17T02:08:06.084Z,99661.36
2023-03-17T02:10:42.290Z,99661.78
2023-03-17T02:13:17.516Z,99673.07
2023-03-17T02:15:53.206Z,99675.59
2023-03-17T02:18:26.169Z,99681.12
2023-03-17T02:21:32.962Z,99682.42
2023-03-17T02:24:12.239Z,99680.23
2023-03-17T02:26:47.300Z,99681.45
2023-03-17T02:29:23.935Z,99683.22
2023-03-17T02:31:57.028Z,99692.03
2023-03-17T02:34:29.772Z,99695.10
2023-03-17T02:37:03.030Z,99692.77
2023-03-17T02:39:36.670Z,99699.95
2023-03-17T02:42:12.926Z,99702.22
2023-03-17T02:44:47.392Z,99706.30
2023-03-17T02:47:21.937Z,99695.56
2023-03-17T02:49:55.027Z,99697.37
2023-03-17T02:52:28.444Z,99694.44
2023-03-17T02:55:01.131Z,99693.64
2023-03-17T02:57:34.632Z,99703.45
2023-03-17T03:00:10.098Z,99705.97
2023-03-17T03:02:44.167Z,99704.30
2023-03-17T03:05:17.793Z,99706.39
2023-03-17T03:07:51.832Z,99707.28
2023-03-17T03:10:24.718Z,99709.58
2023-03-17T03:12:57.427Z,99711.86
2023-03-17T03:15:30.274Z,99710.14
2023-03-17T03:18:02.968Z,99704.05
2023-03-17T03:20:36.597Z,99708.05
2023-03-17T03:23:09.423Z,99709.34
2023-03-17T03:25:42.966Z,99708.92
2023-03-17T03:28:16.529Z,99713.34
2023-03-17T03:30:49.567Z,99715.61
2023-03-17T03:33:23.413Z,99720.81
2023-03-17T03:35:56.471Z,99724.09
2023-03-17T03:38:30.972Z,99726.21
2023-03-17T03:41:04.078Z,99725.17
2023-03-17T03:43:38.182Z,99733.48
2023-03-17T03:46:11.739Z,99725.50
2023-03-17T03:48:44.693Z,99729.15
2023-03-17T03:51:18.434Z,99727.34
2023-03-17T03:53:51.320Z,99727.52
2023-03-17T03:56:24.819Z,99731.51
2023-03-17T03:58:58.208Z,99737.46
2023-03-17T04:01:31.735Z,99734.27
2023-03-17T04:04:04.736Z,99740.27
2023-03-17T04:06:37.660Z,99743.88
2023-03-17T04:09:10.428Z,99739.23
2023-03-17T04:11:44.506Z,99742.34
2023-03-17T04:14:18.916Z,99745.18
2023-03-17T04:16:53.014Z,99741.31
2023-03-17T04:19:25.923Z,99742.67
2023-03-17T04:21:58.935Z,99747.80
2023-03-17T04:24:31.809Z,99751.31
2023-03-17T04:27:06.181Z,99747.08
2023-03-17T04:29:39.607Z,99748.73
2023-03-17T04:32:15.183Z,99746.93
2023-03-17T04:34:49.187Z,99743.36
2023-03-17T04:37:22.893Z,99746.73
2023-03-17T04:39:56.559Z,99755.57
2023-03-17T04:42:29.386Z,99749.86
2023-03-17T04:45:02.114Z,99756.63
2023-03-17T04:47:36.077Z,99757.23
2023-03-17T04:50:11.148Z,99753.83
2023-03-17T04:52:44.610Z,99753.41
2023-03-17T04:55:21.259Z,99755.84
2023-03-17T04:57:53.937Z,99764.95
2023-03-17T05:00:26.825Z,99762.34
2023-03-17T05:02:59.598Z,99767.28
2023-03-17T05:05:34.848Z,99766.58
2023-03-17T05:08:08.135Z,99766.02
2023-03-17T05:10:41.041Z,99770.09
2023-03-17T05:13:14.383Z,99770.98
2023-03-17T05:15:53.108Z,99771.57
2023-03-17T05:18:27.894Z,99777.84
2023-03-17T05:21:01.793Z,99780.69
2023-03-17T05:23:35.791Z,99781.25
2023-03-17T05:26:09.196Z,99781.34
2023-03-17T05:28:42.322Z,99785.38
2023-03-17T05:31:15.242Z,99785.98
2023-03-17T05:33:49.825Z,99786.16
2023-03-17T05:36:22.849Z,99785.45
2023-03-17T05:38:56.729Z,99792.31
2023-03-17T05:41:30.264Z,99790.27
2023-03-17T05:44:03.811Z,99786.77
2023-03-17T05:46:37.546Z,99794.26
2023-03-17T05:49:11.095Z,99795.31
2023-03-17T05:51:43.884Z,99795.41
2023-03-17T05:54:16.836Z,99795.41
2023-03-17T05:56:51.276Z,99791.30
2023-03-17T05:59:24.120Z,99796.61
2023-03-17T06:01:57.528Z,99804.11
2023-03-17T06:04:30.475Z,99795.21
2023-03-17T06:07:03.217Z,99802.23
2023-03-17T06:09:36.671Z,99801.19
2023-03-17T06:12:10.145Z,99800.39
2023-03-17T06:14:42.880Z,99797.70
2023-03-17T06:17:16.359Z,99802.54
2023-03-17T06:19:49.609Z,99800.09
2023-03-17T06:22:22.304Z,99802.95
2023-03-17T06:24:56.177Z,99808.89
2023-03-17T06:27:29.408Z,99803.42
2023-03-17T06:30:02.599Z,99804.98
2023-03-17T06:32:36.624Z,99803.53
2023-03-17T06:35:10.243Z,99809.88
2023-03-17T06:37:43.994Z,99807.98
2023-03-17T06:40:17.615Z,99811.67
2023-03-17T06:42:50.665Z,99809.38
2023-03-17T06:45:23.433Z,99809.95
2023-03-17T06:47:58.552Z,99805.05
2023-03-17T06:50:31.498Z,99805.33
2023-03-17T06:53:05.117Z,99805.08
2023-03-17T06:55:37.997Z,99813.53
2023-03-17T06:58:13.492Z,99806.09
2023-03-17T07:00:49.188Z,99803.29
2023-03-17T07:03:24.325Z,99808.55
2023-03-17T07:05:57.918Z,99810.39
2023-03-17T07:08:31.288Z,99814.34
2023-03-17T07:11:04.928Z,99803.37
2023-03-17T07:13:40.060Z,99810.60
2023-03-17T07:16:16.524Z,99815.91
2023-03-17T07:18:50.826Z,99808.69
2023-03-17T07:21:23.068Z,99809.77
2023-03-17T07:23:55.740Z,99814.77
2023-03-17T07:26:28.583Z,99823.41
2023-03-17T07:29:02.097Z,99828.28
2023-03-17T07:31:37.319Z,99830.19
2023-03-17T07:34:11.569Z,99832.14
2023-03-17T07:36:45.222Z,99843.02
2023-03-17T07:39:18.210Z,99839.83
2023-03-17T07:41:52.785Z,99843.90
2023-03-17T07:44:27.623Z,99842.25
2023-03-17T07:47:00.745Z,99849.77
2023-03-17T07:49:41.319Z,99846.46
2023-03-17T07:52:10.673Z,99847.57
2023-03-17T07:54:45.085Z,99837.98
2023-03-17T07:57:18.804Z,99836.61
2023-03-17T07:59:51.898Z,99838.63
2023-03-17T08:02:25.435Z,99844.61
2023-03-17T08:04:58.284Z,99845.89
2023-03-17T08:07:32.665Z,99847.06
2023-03-17T08:10:09.013Z,99845.42
2023-03-17T08:12:43.017Z,99846.00
2023-03-17T08:15:16.853Z,99851.25
2023-03-17T08:17:50.096Z,99849.99
2023-03-17T08:20:23.452Z,99856.80
2023-03-17T08:22:58.085Z,99856.22
2023-03-17T08:25:32.401Z,99850.36
2023-03-17T08:28:05.611Z,99846.27
2023-03-17T08:30:39.489Z,99847.45
2023-03-17T08:33:13.614Z,99830.84
2023-03-17T08:35:47.306Z,99837.89
2023-03-17T08:38:21.280Z,99831.50
2023-03-17T08:40:54.192Z,99839.48
2023-03-17T08:43:29.005Z,99841.45
2023-03-17T08:46:27.520Z,99844.38
2023-03-17T08:49:02.108Z,99842.02
2023-03-17T08:51:38.281Z,99848.50
2023-03-17T08:54:11.877Z,99854.36
2023-03-17T08:56:47.009Z,99855.31
2023-03-17T08:59:19.932Z,99858.06
2023-03-17T09:01:53.066Z,99854.27
2023-03-17T09:04:26.972Z,99862.36
2023-03-17T09:07:03.974Z,99858.78
2023-03-17T09:09:36.927Z,99852.56
2023-03-17T09:12:11.708Z,99855.67
2023-03-17T09:14:46.312Z,99843.59
2023-03-17T09:17:20.585Z,99851.45
2023-03-17T09:19:54.125Z,99845.32
2023-03-17T09:22:27.343Z,99841.45
2023-03-17T09:25:01.035Z,99848.27
2023-03-17T09:27:34.144Z,99848.22
2023-03-17T09:30:10.652Z,99846.22
2023-03-17T09:32:45.215Z,99849.79
2023-03-17T09:35:19.706Z,99853.78
2023-03-17T09:37:52.970Z,99851.36
2023-03-17T09:40:37.551Z,99857.10
2023-03-17T09:43:19.134Z,99866.29
2023-03-17T09:45:51.929Z,99851.31
2023-03-17T09:48:35.747Z,99851.56
2023-03-17T09:51:14.576Z,99860.03
2023-03-17T09:54:08.065Z,99859.77
2023-03-17T09:56:44.704Z,99860.95
2023-03-17T09:59:37.174Z,99866.44
2023-03-17T10:02:33.110Z,99874.43
2023-03-17T10:05:28.050Z,99879.16
2023-03-17T10:08:30.081Z,99872.77
2023-03-17T10:11:36.796Z,99868.83
2023-03-17T10:14:35.454Z,99876.66
2023-03-17T10:17:23.553Z,99871.47
2023-03-17T10:20:29.098Z,99872.77
2023-03-17T10:23:06.404Z,99872.34
2023-03-17T10:25:39.790Z,99878.56
2023-03-17T10:28:29.828Z,99876.44
2023-03-17T10:31:24.481Z,99882.70
2023-03-17T10:33:58.536Z,99884.47
2023-03-17T10:36:38.498Z,99874.64
2023-03-17T10:39:16.465Z,99871.00
2023-03-17T10:41:56.511Z,99875.28
2023-03-17T10:44:39.660Z,99867.07
2023-03-17T10:47:26.037Z,99863.56
2023-03-17T10:50:05.783Z,99868.19
2023-03-17T10:52:41.807Z,99871.67
2023-03-17T10:55:21.056Z,99868.05
2023-03-17T10:58:05.186Z,99868.10
2023-03-17T11:00:40.091Z,99875.63
2023-03-17T11:03:18.388Z,99884.30
2023-03-17T11:06:01.372Z,99881.89
2023-03-17T11:08:44.940Z,99875.58
2023-03-17T11:11:34.987Z,99873.45
2023-03-17T11:14:14.604Z,99873.45
2023-03-17T11:16:57.256Z,99872.31
2023-03-17T11:19:46.770Z,99879.33
2023-03-17T11:22:33.390Z,99873.94
2023-03-17T11:25:23.737Z,99876.07
2023-03-17T11:28:17.272Z,99874.81
2023-03-17T11:31:09.914Z,99880.48
2023-03-17T11:34:00.319Z,99878.83
2023-03-17T11:37:11.054Z,99876.92
2023-03-17T11:39:57.889Z,99881.98
2023-03-17T11:42:57.324Z,99877.55
2023-03-17T11:45:53.167Z,99881.27
2023-03-17T11:48:46.214Z,99880.72
2023-03-17T11:51:38.386Z,99880.86
2023-03-17T11:54:42.831Z,99896.08
2023-03-17T11:57:36.675Z,99909.52
2023-03-17T12:00:35.028Z,99913.91
2023-03-17T12:03:40.420Z,99917.64
2023-03-17T12:06:21.179Z,99914.35
2023-03-17T12:09:17.640Z,99915.92
2023-03-17T12:11:51.787Z,99918.24
2023-03-17T12:14:38.668Z,99919.00
2023-03-17T12:17:58.935Z,99930.30
2023-03-17T12:21:02.412Z,99931.89
2023-03-17T12:24:02.183Z,99932.80
2023-03-17T12:26:57.837Z,99928.31
2023-03-17T12:29:49.213Z,99939.24
2023-03-17T12:32:31.489Z,99940.44
2023-03-17T12:35:35.347Z,99947.33
2023-03-17T12:38:22.102Z,99941.44
2023-03-17T12:41:22.907Z,99948.30
2023-03-17T12:44:10.558Z,99948.88
2023-03-17T12:46:54.435Z,99940.55
2023-03-17T12:49:50.668Z,99945.89
2023-03-17T12:52:31.815Z,99955.05
2023-03-17T12:55:08.570Z,99942.23
2023-03-17T12:57:47.798Z,99948.67
2023-03-17T13:00:33.523Z,99952.42
2023-03-17T13:03:25.193Z,99955.23
2023-03-17T13:06:05.106Z,99961.61
2023-03-17T13:08:45.058Z,99955.36
2023-03-17T13:11:28.464Z,99963.63
2023-03-17T13:14:42.254Z,99961.13
2023-03-17T13:17:30.324Z,99964.69
2023-03-17T13:20:17.501Z,99975.56
2023-03-17T13:23:13.960Z,99974.19
2023-03-17T13:25:55.089Z,99974.49
2023-03-17T13:28:44.291Z,99974.80
2023-03-17T13:31:36.585Z,99975.00
2023-03-17T13:34:18.162Z,99976.55
2023-03-17T13:37:04.812Z,99970.60
2023-03-17T13:39:51.377Z,99970.87
2023-03-17T13:42:29.256Z,99961.86
2023-03-17T13:45:28.103Z,99959.86
2023-03-17T13:48:33.311Z,99968.89
2023-03-17T13:51:25.426Z,99967.84
2023-03-17T13:54:09.181Z,99956.27
2023-03-17T13:56:49.259Z,99958.41
2023-03-17T13:59:39.485Z,99962.70
2023-03-17T14:02:22.011Z,99958.21
2023-03-17T14:05:07.221Z,99959.39
2023-03-17T14:08:03.976Z,99960.18
2023-03-17T14:10:37.676Z,99948.67
2023-03-17T14:13:26.726Z,99954.67
2023-03-17T14:16:26.207Z,99957.17
2023-03-17T14:19:29.100Z,99953.03
2023-03-17T14:22:09.623Z,99957.79
2023-03-17T14:24:42.470Z,99956.31
2023-03-17T14:27:15.599Z,99968.37
2023-03-17T14:29:48.470Z,99973.34
2023-03-17T14:32:24.561Z,99979.69
2023-03-17T14:35:00.244Z,99983.42
2023-03-17T14:37:33.965Z,99992.41
2023-03-17T14:40:23.640Z,99998.66
2023-03-17T14:42:56.681Z,100006.63
2023-03-17T14:45:52.103Z,100007.51
2023-03-17T14:48:34.348Z,100016.58
2023-03-17T14:51:39.417Z,100019.72
2023-03-17T14:54:24.575Z,100031.41
2023-03-17T14:57:09.620Z,100032.08
2023-03-17T14:59:45.166Z,100035.52
2023-03-17T15:02:34.576Z,100037.19
2023-03-17T15:05:21.162Z,100035.31
2023-03-17T15:07:54.662Z,100040.44
2023-03-17T15:10:31.440Z,100047.23
2023-03-17T15:13:07.403Z,100046.56
2023-03-17T15:15:42.795Z,100050.87
2023-03-17T15:18:18.052Z,100062.05
2023-03-17T15:20:52.481Z,100064.98
2023-03-17T15:23:27.298Z,100064.59
2023-03-17T15:26:00.296Z,100066.98
2023-03-17T15:28:33.726Z,100073.84
2023-03-17T15:31:15.957Z,100068.00
2023-03-17T15:33:49.429Z,100065.62
2023-03-17T15:36:32.360Z,100066.40
2023-03-17T15:38:59.650Z,100079.41
2023-03-17T15:41:32.752Z,100081.45
2023-03-17T15:44:06.334Z,100087.92
2023-03-17T15:46:39.644Z,100094.75
2023-03-17T15:49:14.712Z,100096.71
2023-03-17T15:51:48.990Z,100106.41
2023-03-17T15:54:23.691Z,100103.14
2023-03-17T15:56:57.303Z,100112.99
2023-03-17T15:59:30.897Z,100112.19
2023-03-17T16:02:03.934Z,100118.26
2023-03-17T16:04:37.279Z,100120.41
2023-03-17T16:07:13.501Z,100122.16
2023-03-17T16:09:47.262Z,100117.91
2023-03-17T16:12:20.587Z,100121.59
2023-03-17T16:14:53.581Z,100117.36
2023-03-17T16:17:30.179Z,100122.03
2023-03-17T16:20:04.691Z,100116.06
2023-03-17T16:22:43.283Z,100119.74
2023-03-17T16:25:30.351Z,100119.41
2023-03-17T16:28:17.539Z,100121.28
2023-03-17T16:30:52.351Z,100124.45
2023-03-17T16:33:31.733Z,100122.02
2023-03-17T16:36:04.638Z,100125.19
2023-03-17T16:38:37.804Z,100130.58
2023-03-17T16:41:21.356Z,100124.05
2023-03-17T16:44:00.822Z,100129.41
2023-03-17T16:46:36.275Z,100137.82
2023-03-17T16:49:09.749Z,100142.70
2023-03-17T16:51:43.411Z,100147.08
2023-03-17T16:54:16.777Z,100155.16
2023-03-17T16:56:49.826Z,100161.84
2023-03-17T16:59:26.079Z,100162.00
2023-03-17T17:01:59.695Z,100172.19
2023-03-17T17:04:34.211Z,100175.75
2023-03-17T17:07:07.384Z,100181.17
2023-03-17T17:09:41.209Z,100183.05
2023-03-17T17:12:15.785Z,100191.41
2023-03-17T17:14:49.473Z,100195.05
2023-03-17T17:17:22.236Z,100198.23
2023-03-17T17:19:55.744Z,100196.56
2023-03-17T17:22:30.490Z,100198.30
2023-03-17T17:25:05.041Z,100201.05
2023-03-17T17:27:41.978Z,100209.67
2023-03-17T17:30:19.361Z,100208.69
2023-03-17T17:32:53.473Z,100216.05
2023-03-17T17:35:32.390Z,100208.32
2023-03-17T17:38:04.782Z,100212.88
2023-03-17T17:40:38.400Z,100214.38
2023-03-17T17:43:12.223Z,100223.23
2023-03-17T17:45:48.128Z,100216.56
2023-03-17T17:48:25.503Z,100220.19
2023-03-17T17:50:59.250Z,100218.98
2023-03-17T17:53:31.982Z,100225.83
2023-03-17T17:56:05.370Z,100223.44
2023-03-17T17:58:38.165Z,100225.35
2023-03-17T18:01:13.276Z,100228.59
2023-03-17T18:03:47.015Z,100229.89
2023-03-17T18:06:19.916Z,100243.27
2023-03-17T18:08:53.172Z,100243.74
2023-03-17T18:11:27.519Z,100248.47
2023-03-17T18:14:00.589Z,100249.10
2023-03-17T18:16:34.032Z,100251.09
2023-03-17T18:19:10.291Z,100257.22
2023-03-17T18:21:43.241Z,100259.53
2023-03-17T18:24:16.579Z,100255.62
2023-03-17T18:26:49.897Z,100256.64
2023-03-17T18:29:22.772Z,100255.62
2023-03-17T18:31:57.263Z,100258.44
2023-03-17T18:34:35.354Z,100258.85
2023-03-17T18:37:09.313Z,100262.66
2023-03-17T18:39:43.559Z,100262.05
2023-03-17T18:42:16.496Z,100267.37
2023-03-17T18:44:50.012Z,100269.88
2023-03-17T18:47:23.572Z,100269.27
2023-03-17T18:49:58.452Z,100272.59
2023-03-17T18:52:37.685Z,100271.19
2023-03-17T18:55:12.332Z,100271.09
2023-03-17T18:57:46.692Z,100281.41
2023-03-17T19:00:20.241Z,100273.39
2023-03-17T19:02:54.357Z,100277.09
2023-03-17T19:05:27.215Z,100280.80
2023-03-17T19:08:00.794Z,100282.79
2023-03-17T19:10:34.882Z,100283.61
2023-03-17T19:13:10.211Z,100284.71
2023-03-17T19:15:44.467Z,100279.30
2023-03-17T19:18:17.880Z,100284.61
2023-03-17T19:20:51.416Z,100290.70
2023-03-17T19:23:25.701Z,100293.72
2023-03-17T19:25:59.322Z,100295.23
2023-03-17T19:28:32.273Z,100296.62
2023-03-17T19:31:05.552Z,100293.10
2023-03-17T19:33:39.384Z,100295.33
2023-03-17T19:36:14.260Z,100299.23
2023-03-17T19:38:47.483Z,100299.13
2023-03-17T19:41:20.975Z,100303.61
2023-03-17T19:43:54.141Z,100298.89
2023-03-17T19:46:27.564Z,100310.40
2023-03-17T19:49:01.603Z,100299.09
2023-03-17T19:51:34.907Z,100302.48
2023-03-17T19:54:10.100Z,100305.56
2023-03-17T19:56:43.132Z,100306.85
2023-03-17T19:59:17.012Z,100301.34
2023-03-17T20:01:50.013Z,100299.34
2023-03-17T20:04:23.447Z,100301.84
2023-03-17T20:06:58.162Z,100300.33
2023-03-17T20:09:32.175Z,100304.02
2023-03-17T20:12:05.447Z,100306.52
2023-03-17T20:14:38.356Z,100302.19
2023-03-17T20:17:12.327Z,100304.01
2023-03-17T20:19:46.528Z,100306.09
2023-03-17T20:22:19.637Z,100303.91
2023-03-17T20:24:52.615Z,100304.48
2023-03-17T20:27:26.082Z,100303.91
2023-03-17T20:29:59.357Z,100300.59
2023-03-17T20:32:32.834Z,100304.80
2023-03-17T20:35:07.909Z,100307.30
2023-03-17T20:37:40.874Z,100309.80
2023-03-17T20:40:15.480Z,100305.69
2023-03-17T20:42:49.743Z,100310.41
2023-03-17T20:45:23.485Z,100317.28
2023-03-17T20:47:57.482Z,100322.48
2023-03-17T20:50:31.401Z,100329.91
2023-03-17T20:53:05.711Z,100328.87
2023-03-17T20:55:38.549Z,100332.67
2023-03-17T20:58:13.950Z,100329.38
2023-03-17T21:00:48.741Z,100326.45
2023-03-17T21:03:21.842Z,100318.55
2023-03-17T21:05:55.681Z,100321.73
2023-03-17T21:08:29.016Z,100321.25
2023-03-17T21:11:03.186Z,100311.83
2023-03-17T21:13:37.629Z,100320.30
2023-03-17T21:16:15.548Z,100314.78
2023-03-17T21:18:50.022Z,100322.36
2023-03-17T21:21:23.590Z,100318.87
2023-03-17T21:23:57.336Z,100323.96
2023-03-17T21:26:30.506Z,100318.14
2023-03-17T21:29:04.182Z,100314.65
2023-03-17T21:31:38.808Z,100313.95
2023-03-17T21:34:12.768Z,100310.84
2023-03-17T21:36:45.473Z,100328.24
2023-03-17T21:39:21.170Z,100323.42
2023-03-17T21:41:54.876Z,100328.92
2023-03-17T21:44:28.415Z,100331.41
2023-03-17T21:47:03.342Z,100329.38
2023-03-17T21:49:36.078Z,100327.86
2023-03-17T21:52:09.945Z,100331.72
2023-03-17T21:54:43.616Z,100335.99
2023-03-17T21:57:18.177Z,100338.15
2023-03-17T21:59:51.302Z,100334.59
2023-03-17T22:02:24.856Z,100342.16
2023-03-17T22:04:58.013Z,100349.05
2023-03-17T22:07:31.290Z,100345.05
2023-03-17T22:10:06.530Z,100346.05
2023-03-17T22:12:41.084Z,100345.27
2023-03-17T22:15:14.727Z,100343.05
2023-03-17T22:17:48.187Z,100342.23
2023-03-17T22:20:21.716Z,100342.30
2023-03-17T22:22:54.906Z,100347.82
2023-03-17T22:25:27.879Z,100348.30
2023-03-17T22:28:00.639Z,100351.03
2023-03-17T22:30:37.485Z,100350.81
2023-03-17T22:33:11.154Z,100353.70
2023-03-17T22:35:44.887Z,100347.61
2023-03-17T22:38:18.464Z,100349.52
2023-03-17T22:41:04.613Z,100354.44
2023-03-17T22:43:40.343Z,100346.42
2023-03-17T22:46:14.090Z,100352.91
2023-03-17T22:48:47.734Z,100352.98
2023-03-17T22:51:24.338Z,100367.66
2023-03-17T22:53:59.371Z,100365.44
2023-03-17T22:56:33.254Z,100363.65
2023-03-17T22:59:06.276Z,100361.72
2023-03-17T23:01:39.658Z,100363.02
2023-03-17T23:04:13.205Z,100370.14
2023-03-17T23:06:47.699Z,100366.59
2023-03-17T23:09:21.556Z,100373.68
2023-03-17T23:11:54.882Z,100371.66
2023-03-17T23:14:28.797Z,100386.31
2023-03-17T23:17:01.713Z,100391.02
2023-03-17T23:19:35.323Z,100386.31
2023-03-17T23:22:08.900Z,100388.42
2023-03-17T23:24:41.795Z,100399.09
2023-03-17T23:27:16.081Z,100393.27
2023-03-17T23:29:49.340Z,100397.27
2023-03-17T23:32:23.045Z,100402.98
2023-03-17T23:34:55.874Z,100404.36
2023-03-17T23:37:28.777Z,100403.19
2023-03-17T23:40:02.247Z,100406.47
2023-03-17T23:42:36.264Z,100413.02
2023-03-17T23:45:10.866Z,100413.02
2023-03-17T23:47:43.949Z,100407.59
2023-03-17T23:50:17.834Z,100408.55
2023-03-17T23:52:52.032Z,100405.06
2023-03-17T23:55:24.784Z,100406.77
2023-03-17T23:57:57.458Z,100410.54
